Time;durP1;ratioP1;P1;durP2;ratioP2;P2;SDS_P1;SDS_P2;PMS_P1;PMS_P2;Temp;Humidity;BMP_temperature;BMP_pressure;BME280_temperature;BME280_humidity;BME280_pressure;Samples;Min_cycle;Max_cycle;Signal;HPM_P1;HPM_P2
2023/01/26 00:00:05;;;;;;;;;;;1.30;99.90;;;;;;5109320;27;19923;-93
2023/01/26 00:02:30;;;;;;;;;;;-0.40;99.90;;;;;;5107579;27;19923;-93
2023/01/26 00:04:56;;;;;;;;;;;-0.40;99.90;;;;;;5113198;27;19927;-93
2023/01/26 00:07:22;;;;;;;;;;;0.60;99.90;;;;;;5138338;27;20010;-94
2023/01/26 00:09:47;;;;;;;;;;;1.60;99.90;;;;;;5108211;27;19967;-94
2023/01/26 00:12:13;;;;;;;;;;;2.20;99.90;;;;;;5125069;27;19924;-93
2023/01/26 00:14:51;;;;;;;;;;;1.80;99.90;;;;;;5119619;27;19923;-94
2023/01/26 00:17:24;;;;;;;;;;;-0.40;99.90;;;;;;5112735;27;19928;-93
2023/01/26 00:19:54;;;;;;;;;;;-0.40;99.90;;;;;;5123427;27;19930;-93
2023/01/26 00:22:20;;;;;;;;;;;1.70;99.90;;;;;;5146668;27;19930;-93
2023/01/26 00:24:46;;;;;;;;;;;2.20;99.90;;;;;;5120353;27;19987;-93
2023/01/26 00:27:11;;;;;;;;;;;1.80;99.90;;;;;;5134403;27;19931;-94
2023/01/26 00:29:37;;;;;;;;;;;-0.40;99.90;;;;;;5108322;27;19927;-94
2023/01/26 00:32:02;;;;;;;;;;;0.20;99.90;;;;;;5106804;28;20636;-94
2023/01/26 00:34:28;;;;;;;;;;;-0.30;99.90;;;;;;5117112;27;19923;-94
2023/01/26 00:36:53;;;;;;;;;;;1.60;99.90;;;;;;5095749;27;19934;-93
2023/01/26 00:39:19;;;;;;;;;;;1.50;99.90;;;;;;5111184;27;19924;-93
2023/01/26 00:44:29;;;;;;;;;;;1.90;99.90;;;;;;5133411;27;19932;-93
2023/01/26 00:46:54;;;;;;;;;;;0.20;99.90;;;;;;5110762;27;19968;-93
2023/01/26 00:49:20;;;;;;;;;;;1.00;99.90;;;;;;5111463;28;19983;-94
2023/01/26 00:51:46;;;;;;;;;;;-0.30;99.90;;;;;;5090922;28;19938;-94
2023/01/26 00:54:11;;;;;;;;;;;-0.30;99.90;;;;;;5123429;27;19931;-96
2023/01/26 00:56:37;;;;;;;;;;;-0.30;99.90;;;;;;5099095;28;19923;-93
2023/01/26 00:59:03;;;;;;;;;;;-0.30;99.90;;;;;;5132658;27;19923;-92
2023/01/26 01:01:30;;;;;;;;;;;0.40;99.90;;;;;;5103368;28;21572;-94
2023/01/26 01:03:56;;;;;;;;;;;-0.30;99.90;;;;;;5121748;27;19928;-93
2023/01/26 01:06:22;;;;;;;;;;;-0.40;99.90;;;;;;5124841;27;19934;-95
2023/01/26 01:08:48;;;;;;;;;;;-0.30;99.90;;;;;;5119247;28;19939;-94
2023/01/26 01:11:14;;;;;;;;;;;-0.30;99.90;;;;;;5101514;27;19965;-94
2023/01/26 01:13:39;;;;;;;;;;;1.20;99.90;;;;;;5124578;27;19966;-93
2023/01/26 01:16:06;;;;;;;;;;;2.50;99.90;;;;;;5139309;27;20208;-94
2023/01/26 01:18:31;;;;;;;;;;;-0.40;99.90;;;;;;5136341;27;19979;-94
2023/01/26 01:20:57;;;;;;;;;;;-0.20;99.90;;;;;;5141464;27;19915;-94
2023/01/26 01:23:23;;;;;;;;;;;1.80;99.90;;;;;;5109584;28;20340;-93
2023/01/26 01:25:55;;;;;;;;;;;-0.30;99.90;;;;;;5125539;28;19959;-94
2023/01/26 01:28:21;;;;;;;;;;;-0.30;99.90;;;;;;5116930;28;19924;-94
2023/01/26 01:30:47;;;;;;;;;;;0.80;99.90;;;;;;5118776;27;19928;-95
2023/01/26 01:33:13;;;;;;;;;;;-2.60;99.90;;;;;;5122494;27;19923;-94
2023/01/26 01:35:38;;;;;;;;;;;-0.10;99.90;;;;;;5124294;28;19969;-94
2023/01/26 01:38:04;;;;;;;;;;;1.80;99.90;;;;;;5117992;28;19924;-94
2023/01/26 01:40:30;;;;;;;;;;;1.80;99.90;;;;;;5118867;28;20363;-95
2023/01/26 01:43:00;;;;;;;;;;;2.00;99.90;;;;;;5107311;28;19924;-95
2023/01/26 01:45:36;;;;;;;;;;;-0.30;99.90;;;;;;5116356;28;19938;-95
2023/01/26 01:48:02;;;;;;;;;;;2.40;99.90;;;;;;5126226;28;19930;-95
2023/01/26 01:50:30;;;;;;;;;;;0.20;99.90;;;;;;5131901;27;19944;-95
2023/01/26 01:52:56;;;;;;;;;;;0.30;99.90;;;;;;5131565;27;20006;-95
2023/01/26 01:55:23;;;;;;;;;;;0.60;99.90;;;;;;5115384;27;19935;-95
2023/01/26 01:57:52;;;;;;;;;;;-0.10;99.90;;;;;;5124771;28;19946;-95
2023/01/26 02:00:19;;;;;;;;;;;0.80;99.90;;;;;;5121500;28;19924;-96
2023/01/26 02:03:09;;;;;;;;;;;0.20;99.90;;;;;;5121050;27;19923;-95
2023/01/26 02:05:36;;;;;;;;;;;0.60;99.90;;;;;;5136397;28;19954;-96
2023/01/26 02:08:16;;;;;;;;;;;0.40;99.90;;;;;;5116862;27;20669;-96
2023/01/26 02:10:49;;;;;;;;;;;-0.10;99.90;;;;;;5118868;28;19923;-96
2023/01/26 02:13:15;;;;;;;;;;;-1.20;99.90;;;;;;5120974;28;19923;-96
2023/01/26 02:15:42;;;;;;;;;;;1.60;99.90;;;;;;5094246;28;19924;-95
2023/01/26 02:18:10;;;;;;;;;;;-0.30;99.90;;;;;;5125142;27;19923;-96
2023/01/26 02:21:11;;;;;;;;;;;1.00;99.90;;;;;;5122501;28;19925;-95
2023/01/26 02:23:37;;;;;;;;;;;1.10;99.90;;;;;;5061256;28;19932;-96
2023/01/26 02:26:10;;;;;;;;;;;-1.30;99.90;;;;;;5127734;28;19977;-95
2023/01/26 02:28:36;;;;;;;;;;;0.00;99.90;;;;;;5112942;28;20003;-95
2023/01/26 02:31:02;;;;;;;;;;;0.20;99.90;;;;;;5104299;28;19966;-96
2023/01/26 02:33:31;;;;;;;;;;;0.70;99.90;;;;;;5119636;28;20331;-96
2023/01/26 02:35:58;;;;;;;;;;;0.40;99.90;;;;;;5111869;28;19928;-96
2023/01/26 02:38:28;;;;;;;;;;;2.90;99.90;;;;;;5121295;28;19939;-96
2023/01/26 02:41:11;;;;;;;;;;;2.50;99.90;;;;;;5119650;27;19949;-96
2023/01/26 02:43:37;;;;;;;;;;;-0.20;99.90;;;;;;5137888;27;19923;-96
2023/01/26 02:46:06;;;;;;;;;;;0.10;99.90;;;;;;5135159;27;19919;-95
2023/01/26 02:51:28;;;;;;;;;;;1.20;99.90;;;;;;5138893;27;19960;-95
2023/01/26 02:53:58;;;;;;;;;;;0.20;99.90;;;;;;5114218;27;19953;-95
2023/01/26 02:56:40;;;;;;;;;;;1.20;99.90;;;;;;5133222;27;19930;-94
2023/01/26 02:59:14;;;;;;;;;;;0.10;99.90;;;;;;5126776;27;20357;-96
2023/01/26 03:01:46;;;;;;;;;;;0.80;99.90;;;;;;5122709;27;19944;-96
2023/01/26 03:04:30;;;;;;;;;;;0.10;99.90;;;;;;5114666;28;19924;-96
2023/01/26 03:07:22;;;;;;;;;;;-0.20;99.90;;;;;;5141278;27;20255;-94
2023/01/26 03:09:52;;;;;;;;;;;0.00;99.90;;;;;;5092235;28;19924;-96
2023/01/26 03:12:39;;;;;;;;;;;0.90;99.90;;;;;;5106339;28;19924;-96
2023/01/26 03:29:47;;;;;;;;;;;-0.10;99.90;;;;;;5109539;27;19923;-95
2023/01/26 03:32:36;;;;;;;;;;;-0.10;99.90;;;;;;5087549;28;19924;-95
2023/01/26 03:35:05;;;;;;;;;;;0.50;99.90;;;;;;5086365;28;19931;-95
2023/01/26 03:37:35;;;;;;;;;;;-1.70;99.90;;;;;;5105819;27;20052;-94
2023/01/26 03:56:56;;;;;;;;;;;0.80;99.90;;;;;;5125993;27;19986;-94
2023/01/26 03:59:37;;;;;;;;;;;-1.50;99.90;;;;;;5121863;27;19934;-94
2023/01/26 04:10:33;;;;;;;;;;;1.20;99.90;;;;;;5141383;27;19945;-95
2023/01/26 04:21:33;;;;;;;;;;;3.20;99.90;;;;;;5135608;27;19927;-93
2023/01/26 04:24:08;;;;;;;;;;;-1.50;99.90;;;;;;5105120;27;19971;-93
2023/01/26 04:26:37;;;;;;;;;;;-1.20;99.90;;;;;;5115632;27;19927;-95
2023/01/26 04:29:10;;;;;;;;;;;-0.50;99.90;;;;;;5142992;27;19930;-95
2023/01/26 04:31:50;;;;;;;;;;;0.40;99.90;;;;;;5117387;27;19949;-93
2023/01/26 04:34:19;;;;;;;;;;;0.40;99.90;;;;;;5126313;27;19933;-95
2023/01/26 04:36:48;;;;;;;;;;;0.50;99.90;;;;;;5099891;28;19994;-95
2023/01/26 04:39:14;;;;;;;;;;;0.80;99.90;;;;;;5116971;27;20040;-95
2023/01/26 04:41:48;;;;;;;;;;;0.10;99.90;;;;;;5106478;27;19930;-96
2023/01/26 04:44:17;;;;;;;;;;;0.10;99.90;;;;;;5119755;27;19956;-95
2023/01/26 04:46:47;;;;;;;;;;;0.40;99.90;;;;;;5115060;27;20018;-94
2023/01/26 04:49:21;;;;;;;;;;;0.70;99.90;;;;;;5117210;27;19938;-94
2023/01/26 04:51:46;;;;;;;;;;;0.60;99.90;;;;;;5112117;27;19934;-94
2023/01/26 04:54:15;;;;;;;;;;;0.10;99.90;;;;;;5114300;27;19924;-94
2023/01/26 04:56:44;;;;;;;;;;;-0.20;99.90;;;;;;5109545;27;19930;-95
2023/01/26 04:59:09;;;;;;;;;;;0.90;99.90;;;;;;5099312;28;20022;-92
2023/01/26 05:01:37;;;;;;;;;;;1.60;99.90;;;;;;5101149;28;19924;-96
2023/01/26 05:04:04;;;;;;;;;;;-1.60;99.90;;;;;;5115283;27;19931;-95
2023/01/26 05:06:33;;;;;;;;;;;0.10;99.90;;;;;;5103114;28;19923;-93
2023/01/26 05:08:59;;;;;;;;;;;0.40;99.90;;;;;;5121051;27;19964;-94
2023/01/26 05:11:24;;;;;;;;;;;0.60;99.90;;;;;;5125457;27;19924;-94
2023/01/26 05:13:50;;;;;;;;;;;0.20;99.90;;;;;;5118851;27;19927;-93
2023/01/26 05:16:16;;;;;;;;;;;0.70;99.90;;;;;;5125424;27;19931;-93
2023/01/26 05:18:42;;;;;;;;;;;1.80;99.90;;;;;;5117206;27;19987;-94
2023/01/26 05:21:09;;;;;;;;;;;-0.90;99.90;;;;;;5138798;27;19931;-93
2023/01/26 05:23:34;;;;;;;;;;;0.30;99.90;;;;;;5130440;27;19923;-93
2023/01/26 05:26:00;;;;;;;;;;;1.20;99.90;;;;;;5106599;27;19962;-92
2023/01/26 05:28:26;;;;;;;;;;;1.20;99.90;;;;;;5112794;28;19923;-93
2023/01/26 05:30:52;;;;;;;;;;;0.30;99.90;;;;;;5127192;27;19924;-94
2023/01/26 05:33:20;;;;;;;;;;;0.20;99.90;;;;;;5103631;28;19924;-94
2023/01/26 05:35:55;;;;;;;;;;;0.30;99.90;;;;;;5123861;28;19934;-93
2023/01/26 05:38:21;;;;;;;;;;;0.20;99.90;;;;;;5122943;28;19923;-93
2023/01/26 05:40:46;;;;;;;;;;;1.50;99.90;;;;;;5111129;27;20390;-91
2023/01/26 05:43:12;;;;;;;;;;;0.50;99.90;;;;;;5139907;27;19942;-93
2023/01/26 05:45:41;;;;;;;;;;;0.50;99.90;;;;;;5137865;27;19932;-92
2023/01/26 05:48:06;;;;;;;;;;;0.20;99.90;;;;;;5123976;27;19976;-92
2023/01/26 05:50:32;;;;;;;;;;;2.70;99.90;;;;;;5129651;28;20384;-93
2023/01/26 05:52:59;;;;;;;;;;;0.30;99.90;;;;;;5116367;27;19962;-93
2023/01/26 05:55:25;;;;;;;;;;;1.50;99.90;;;;;;5121981;28;20350;-92
2023/01/26 05:57:51;;;;;;;;;;;0.70;99.90;;;;;;5122932;28;19962;-92
2023/01/26 06:00:16;;;;;;;;;;;0.20;99.90;;;;;;5124960;27;19935;-92
2023/01/26 06:02:42;;;;;;;;;;;0.40;99.90;;;;;;5127599;28;19924;-92
2023/01/26 06:05:08;;;;;;;;;;;0.00;99.90;;;;;;5128838;27;19919;-91
2023/01/26 06:07:33;;;;;;;;;;;0.30;99.90;;;;;;5127618;28;20291;-92
2023/01/26 06:09:59;;;;;;;;;;;0.50;99.90;;;;;;5137277;27;19919;-92
2023/01/26 06:12:27;;;;;;;;;;;0.40;99.90;;;;;;5131759;27;19924;-92
2023/01/26 06:14:52;;;;;;;;;;;0.50;99.90;;;;;;5107263;28;19946;-92
2023/01/26 06:17:18;;;;;;;;;;;0.20;99.90;;;;;;5106326;27;19923;-91
2023/01/26 06:19:43;;;;;;;;;;;0.60;99.90;;;;;;5126731;27;19934;-92
2023/01/26 06:22:10;;;;;;;;;;;0.60;99.90;;;;;;5148425;27;19984;-90
2023/01/26 06:24:36;;;;;;;;;;;0.20;99.90;;;;;;5122370;27;19962;-91
2023/01/26 06:27:02;;;;;;;;;;;0.70;99.90;;;;;;5121320;27;19924;-91
2023/01/26 06:29:28;;;;;;;;;;;0.30;99.90;;;;;;5128195;27;19986;-92
2023/01/26 06:31:53;;;;;;;;;;;0.30;99.90;;;;;;5142637;27;19924;-93
2023/01/26 06:34:19;;;;;;;;;;;1.20;99.90;;;;;;5131016;27;19924;-92
2023/01/26 06:36:45;;;;;;;;;;;0.70;99.90;;;;;;5128774;27;19923;-92
2023/01/26 06:39:11;;;;;;;;;;;1.70;99.90;;;;;;5135827;27;19930;-92
2023/01/26 06:41:36;;;;;;;;;;;0.20;99.90;;;;;;5144374;27;19927;-92
2023/01/26 06:44:02;;;;;;;;;;;1.60;99.90;;;;;;5148003;27;19924;-92
2023/01/26 06:46:28;;;;;;;;;;;2.50;99.90;;;;;;5100895;27;19924;-92
2023/01/26 06:48:53;;;;;;;;;;;2.00;99.90;;;;;;5120864;27;19962;-91
2023/01/26 06:51:19;;;;;;;;;;;0.30;99.90;;;;;;5136193;27;19930;-91
2023/01/26 06:53:54;;;;;;;;;;;1.80;99.90;;;;;;5138715;27;19930;-91
2023/01/26 06:56:20;;;;;;;;;;;0.10;99.90;;;;;;5129328;27;19923;-93
2023/01/26 06:58:46;;;;;;;;;;;0.00;99.90;;;;;;5128273;27;19930;-92
2023/01/26 07:01:15;;;;;;;;;;;1.50;99.90;;;;;;5120467;27;19923;-92
2023/01/26 07:03:40;;;;;;;;;;;0.00;99.90;;;;;;5116956;27;19935;-92
2023/01/26 07:06:10;;;;;;;;;;;0.00;99.90;;;;;;5135698;27;19931;-93
2023/01/26 07:08:35;;;;;;;;;;;-0.10;99.90;;;;;;5106966;27;19923;-92
2023/01/26 07:11:01;;;;;;;;;;;-0.10;99.90;;;;;;5112364;27;20068;-92
2023/01/26 07:13:26;;;;;;;;;;;1.50;99.90;;;;;;5137257;27;19927;-91
2023/01/26 07:15:58;;;;;;;;;;;1.80;99.90;;;;;;5135957;27;19942;-92
2023/01/26 07:18:24;;;;;;;;;;;1.50;99.90;;;;;;5118297;27;19923;-91
2023/01/26 07:20:49;;;;;;;;;;;0.80;99.90;;;;;;5100891;27;20302;-92
2023/01/26 07:23:15;;;;;;;;;;;-0.30;99.90;;;;;;5121057;27;19923;-93
2023/01/26 07:25:42;;;;;;;;;;;1.70;99.90;;;;;;5106742;27;19995;-91
2023/01/26 07:28:09;;;;;;;;;;;0.30;99.90;;;;;;5115418;27;20561;-91
2023/01/26 07:30:35;;;;;;;;;;;0.10;99.90;;;;;;5114809;27;19934;-92
2023/01/26 07:33:00;;;;;;;;;;;-0.30;99.90;;;;;;5121560;27;19923;-92
2023/01/26 07:35:28;;;;;;;;;;;0.40;99.90;;;;;;5124869;27;19927;-92
2023/01/26 07:37:54;;;;;;;;;;;1.20;99.90;;;;;;5123014;27;19923;-93
2023/01/26 07:40:19;;;;;;;;;;;-0.20;99.90;;;;;;5126598;27;19923;-92
2023/01/26 07:42:45;;;;;;;;;;;1.70;99.90;;;;;;5116791;27;19929;-92
2023/01/26 07:45:11;;;;;;;;;;;2.10;99.90;;;;;;5113920;27;20373;-92
2023/01/26 07:47:37;;;;;;;;;;;1.70;99.90;;;;;;5100696;27;19959;-92
2023/01/26 07:50:03;;;;;;;;;;;2.30;99.90;;;;;;5130519;27;19960;-93
2023/01/26 07:52:28;;;;;;;;;;;0.00;99.90;;;;;;5136071;27;19923;-92
2023/01/26 07:54:54;;;;;;;;;;;2.00;99.90;;;;;;5132494;27;19931;-91
2023/01/26 07:57:19;;;;;;;;;;;0.50;99.90;;;;;;5101258;28;20347;-90
2023/01/26 07:59:45;;;;;;;;;;;0.10;99.90;;;;;;5136165;27;19938;-91
2023/01/26 08:02:11;;;;;;;;;;;0.30;99.90;;;;;;5114255;27;19935;-93
2023/01/26 08:04:36;;;;;;;;;;;0.20;99.90;;;;;;5103975;27;19927;-92
2023/01/26 08:07:02;;;;;;;;;;;0.10;99.90;;;;;;5117676;27;19924;-91
2023/01/26 08:09:27;;;;;;;;;;;0.30;99.90;;;;;;5121789;27;19931;-90
2023/01/26 08:11:55;;;;;;;;;;;0.10;99.90;;;;;;5126187;27;20427;-91
2023/01/26 08:14:20;;;;;;;;;;;0.10;99.90;;;;;;5143345;27;19961;-91
2023/01/26 08:16:46;;;;;;;;;;;1.20;99.90;;;;;;5123723;27;20025;-91
2023/01/26 08:19:12;;;;;;;;;;;2.90;99.90;;;;;;5101083;27;19933;-92
2023/01/26 08:21:37;;;;;;;;;;;2.60;99.90;;;;;;5135302;27;19923;-90
2023/01/26 08:24:03;;;;;;;;;;;0.30;99.90;;;;;;5105171;27;19931;-91
2023/01/26 08:26:29;;;;;;;;;;;0.10;99.90;;;;;;5137177;27;19923;-91
2023/01/26 08:28:54;;;;;;;;;;;0.10;99.90;;;;;;5102723;27;19930;-91
2023/01/26 08:31:20;;;;;;;;;;;0.30;99.90;;;;;;5123595;27;19947;-90
2023/01/26 08:33:47;;;;;;;;;;;1.50;99.90;;;;;;5144084;27;19923;-92
2023/01/26 08:36:13;;;;;;;;;;;0.40;99.90;;;;;;5121969;27;20345;-91
2023/01/26 08:38:39;;;;;;;;;;;1.40;99.90;;;;;;5111424;27;19923;-92
2023/01/26 08:41:05;;;;;;;;;;;1.40;99.90;;;;;;5124248;27;19942;-92
2023/01/26 08:43:30;;;;;;;;;;;2.20;99.90;;;;;;5105246;27;19955;-92
2023/01/26 08:45:56;;;;;;;;;;;0.60;99.90;;;;;;5103499;27;19931;-91
2023/01/26 08:48:21;;;;;;;;;;;2.60;99.90;;;;;;5123413;27;20018;-91
2023/01/26 08:50:47;;;;;;;;;;;0.30;99.90;;;;;;5101266;28;19977;-91
2023/01/26 08:53:13;;;;;;;;;;;0.40;99.90;;;;;;5125213;27;20073;-92
2023/01/26 08:55:38;;;;;;;;;;;0.80;99.90;;;;;;5129782;27;19931;-91
2023/01/26 08:58:04;;;;;;;;;;;0.40;99.90;;;;;;5137871;27;19923;-92
2023/01/26 09:00:30;;;;;;;;;;;0.50;99.90;;;;;;5126259;27;19926;-90
2023/01/26 09:02:59;;;;;;;;;;;1.40;99.90;;;;;;5138167;27;19919;-92
2023/01/26 09:05:25;;;;;;;;;;;0.40;99.90;;;;;;5106634;27;19946;-92
2023/01/26 09:07:51;;;;;;;;;;;1.00;99.90;;;;;;5121790;27;19937;-91
2023/01/26 09:10:17;;;;;;;;;;;0.40;99.90;;;;;;5123397;27;19963;-92
2023/01/26 09:12:42;;;;;;;;;;;0.50;99.90;;;;;;5117083;27;19923;-91
2023/01/26 09:15:08;;;;;;;;;;;0.50;99.90;;;;;;5126169;27;20025;-90
2023/01/26 09:17:34;;;;;;;;;;;0.60;99.90;;;;;;5113852;27;19972;-92
2023/01/26 09:19:59;;;;;;;;;;;0.70;99.90;;;;;;5126057;27;19923;-90
2023/01/26 09:22:25;;;;;;;;;;;1.90;99.90;;;;;;5104324;27;19988;-93
2023/01/26 09:24:51;;;;;;;;;;;0.80;99.90;;;;;;5104171;27;19969;-91
2023/01/26 09:27:16;;;;;;;;;;;1.00;99.90;;;;;;5105459;27;19927;-91
2023/01/26 09:29:42;;;;;;;;;;;1.40;99.90;;;;;;5121888;28;19930;-91
2023/01/26 09:32:07;;;;;;;;;;;1.30;99.90;;;;;;5126072;27;19977;-91
2023/01/26 09:34:33;;;;;;;;;;;1.20;99.90;;;;;;5107199;27;19933;-92
2023/01/26 09:36:59;;;;;;;;;;;1.30;99.90;;;;;;5112957;28;19990;-93
2023/01/26 09:39:24;;;;;;;;;;;1.50;99.90;;;;;;5139154;28;19935;-91
2023/01/26 09:42:09;;;;;;;;;;;1.70;99.90;;;;;;5122791;27;19986;-92
2023/01/26 09:44:40;;;;;;;;;;;1.60;99.90;;;;;;5129175;27;19923;-91
2023/01/26 09:47:25;;;;;;;;;;;2.30;99.90;;;;;;5116937;28;19932;-92
2023/01/26 09:50:00;;;;;;;;;;;1.90;99.90;;;;;;5139367;28;19928;-92
2023/01/26 09:52:28;;;;;;;;;;;2.10;99.90;;;;;;5135441;27;19934;-92
2023/01/26 09:54:56;;;;;;;;;;;2.70;99.90;;;;;;5117091;27;19931;-92
2023/01/26 09:57:32;;;;;;;;;;;2.30;99.90;;;;;;5123975;27;19962;-92
2023/01/26 09:59:58;;;;;;;;;;;2.60;99.90;;;;;;5140488;27;19931;-94
2023/01/26 10:02:42;;;;;;;;;;;2.50;99.90;;;;;;5102119;27;19924;-93
2023/01/26 10:05:47;;;;;;;;;;;2.70;99.90;;;;;;5091324;28;19932;-94
2023/01/26 10:08:14;;;;;;;;;;;2.90;99.90;;;;;;5102068;28;19945;-94
2023/01/26 10:10:53;;;;;;;;;;;3.10;99.90;;;;;;5083908;28;19924;-94
2023/01/26 10:13:19;;;;;;;;;;;3.20;99.90;;;;;;5096913;28;19924;-92
2023/01/26 10:15:46;;;;;;;;;;;3.50;99.90;;;;;;5073851;28;19927;-93
2023/01/26 10:18:16;;;;;;;;;;;3.50;99.90;;;;;;5085780;28;20641;-93
2023/01/26 10:20:45;;;;;;;;;;;3.70;99.90;;;;;;5090506;28;19931;-93
2023/01/26 10:23:15;;;;;;;;;;;3.90;99.90;;;;;;5069013;28;19924;-94
2023/01/26 10:25:41;;;;;;;;;;;4.10;99.90;;;;;;5075278;28;20297;-94
2023/01/26 10:28:12;;;;;;;;;;;4.10;99.90;;;;;;5114201;28;20025;-92
2023/01/26 10:30:39;;;;;;;;;;;4.20;99.90;;;;;;5100641;28;19932;-93
2023/01/26 10:33:08;;;;;;;;;;;4.30;99.90;;;;;;5089413;28;19931;-93
2023/01/26 10:35:34;;;;;;;;;;;4.40;99.90;;;;;;5098055;28;19924;-93
2023/01/26 10:37:59;;;;;;;;;;;4.40;99.90;;;;;;5067036;28;19931;-92
2023/01/26 10:40:25;;;;;;;;;;;4.50;99.90;;;;;;5102460;28;19931;-93
2023/01/26 10:42:56;;;;;;;;;;;4.60;99.90;;;;;;5068368;28;19923;-94
2023/01/26 10:45:31;;;;;;;;;;;4.70;99.90;;;;;;5077642;28;20288;-93
2023/01/26 10:48:03;;;;;;;;;;;4.90;99.90;;;;;;5082641;28;19939;-92
2023/01/26 10:50:30;;;;;;;;;;;5.00;99.90;;;;;;5090691;28;19925;-92
2023/01/26 10:53:00;;;;;;;;;;;5.10;99.90;;;;;;5087076;28;19980;-92
2023/01/26 10:55:26;;;;;;;;;;;5.20;99.90;;;;;;5098485;28;19925;-93
2023/01/26 10:57:52;;;;;;;;;;;5.30;99.90;;;;;;5072812;28;20307;-93
2023/01/26 11:00:18;;;;;;;;;;;5.40;99.90;;;;;;5091644;28;19935;-93
2023/01/26 11:02:49;;;;;;;;;;;5.40;99.90;;;;;;5104284;27;19923;-92
2023/01/26 11:05:17;;;;;;;;;;;5.60;99.90;;;;;;5121221;27;19971;-94
2023/01/26 11:07:59;;;;;;;;;;;5.70;99.90;;;;;;5142091;27;20002;-91
2023/01/26 11:10:24;;;;;;;;;;;5.80;99.90;;;;;;5119917;27;20342;-92
2023/01/26 11:12:51;;;;;;;;;;;5.90;99.90;;;;;;5124392;27;19923;-92
2023/01/26 11:15:23;;;;;;;;;;;6.00;99.90;;;;;;5139908;27;19931;-93
2023/01/26 11:17:59;;;;;;;;;;;6.10;99.90;;;;;;5117930;27;19923;-92
2023/01/26 11:20:31;;;;;;;;;;;6.10;99.90;;;;;;5128125;27;20006;-94
2023/01/26 11:22:56;;;;;;;;;;;6.00;99.90;;;;;;5140495;27;19929;-93
2023/01/26 11:25:22;;;;;;;;;;;6.00;99.90;;;;;;5123917;27;19987;-90
2023/01/26 11:28:10;;;;;;;;;;;6.00;99.90;;;;;;5121701;27;19923;-92
2023/01/26 11:30:40;;;;;;;;;;;6.20;99.90;;;;;;5120473;27;19987;-93
2023/01/26 11:33:06;;;;;;;;;;;6.30;99.90;;;;;;5135766;27;19942;-91
2023/01/26 11:35:50;;;;;;;;;;;6.40;99.90;;;;;;5142305;27;19923;-92
2023/01/26 11:38:25;;;;;;;;;;;6.50;99.90;;;;;;5115653;27;19966;-92
2023/01/26 11:41:00;;;;;;;;;;;6.60;99.90;;;;;;5132795;27;20457;-91
2023/01/26 11:43:28;;;;;;;;;;;6.70;99.90;;;;;;5128247;27;19924;-92
2023/01/26 11:46:13;;;;;;;;;;;6.80;99.90;;;;;;5136016;27;19923;-91
2023/01/26 11:48:54;;;;;;;;;;;6.90;99.90;;;;;;5119365;27;19923;-93
2023/01/26 11:51:22;;;;;;;;;;;7.10;99.90;;;;;;5136581;27;19934;-94
2023/01/26 11:54:07;;;;;;;;;;;7.20;99.90;;;;;;5120132;27;19971;-94
2023/01/26 11:56:32;;;;;;;;;;;7.30;99.90;;;;;;5129230;27;19930;-91
2023/01/26 11:59:01;;;;;;;;;;;7.30;99.90;;;;;;5130923;27;19975;-93
2023/01/26 12:01:29;;;;;;;;;;;7.20;99.90;;;;;;5139251;27;19919;-92
2023/01/26 12:03:55;;;;;;;;;;;7.10;99.90;;;;;;5154705;27;19972;-93
2023/01/26 12:06:28;;;;;;;;;;;7.00;99.90;;;;;;5115652;27;19924;-92
2023/01/26 12:08:58;;;;;;;;;;;7.00;99.90;;;;;;5135349;27;20330;-91
2023/01/26 12:11:26;;;;;;;;;;;6.90;99.90;;;;;;5117057;27;19995;-93
2023/01/26 12:14:05;;;;;;;;;;;6.90;99.90;;;;;;5126409;27;19931;-92
2023/01/26 12:16:46;;;;;;;;;;;6.90;99.90;;;;;;5115286;27;19923;-92
2023/01/26 12:19:16;;;;;;;;;;;7.00;99.90;;;;;;5133126;27;19989;-93
2023/01/26 12:21:45;;;;;;;;;;;7.00;99.90;;;;;;5137970;27;19924;-93
2023/01/26 12:24:15;;;;;;;;;;;7.00;99.90;;;;;;5114149;27;19923;-93
2023/01/26 12:26:44;;;;;;;;;;;7.00;99.90;;;;;;5118871;28;20395;-91
2023/01/26 12:29:16;;;;;;;;;;;7.00;99.90;;;;;;5135868;27;19973;-94
2023/01/26 12:31:41;;;;;;;;;;;7.00;99.90;;;;;;5129628;27;19923;-93
2023/01/26 12:34:10;;;;;;;;;;;7.10;99.90;;;;;;5118336;27;20425;-94
2023/01/26 12:37:00;;;;;;;;;;;7.10;99.90;;;;;;5140904;27;20000;-91
2023/01/26 12:39:25;;;;;;;;;;;7.10;99.90;;;;;;5121504;27;19931;-94
2023/01/26 12:42:00;;;;;;;;;;;7.10;99.90;;;;;;5120403;27;19924;-92
2023/01/26 12:44:52;;;;;;;;;;;7.10;99.90;;;;;;5137893;27;19928;-94
2023/01/26 12:47:27;;;;;;;;;;;7.20;99.90;;;;;;5127808;27;19923;-93
2023/01/26 12:50:05;;;;;;;;;;;7.10;99.90;;;;;;5135628;27;19930;-95
2023/01/26 12:52:31;;;;;;;;;;;7.10;99.90;;;;;;5124818;27;19924;-93
2023/01/26 12:55:01;;;;;;;;;;;7.20;99.90;;;;;;5120807;27;19973;-92
2023/01/26 12:57:34;;;;;;;;;;;7.20;99.90;;;;;;5119274;27;19946;-93
2023/01/26 13:00:16;;;;;;;;;;;6.40;99.90;;;;;;5125475;27;19931;-93
2023/01/26 13:02:44;;;;;;;;;;;7.20;99.90;;;;;;5116470;27;20653;-93
2023/01/26 13:05:21;;;;;;;;;;;7.10;99.90;;;;;;5115110;27;19923;-93
2023/01/26 13:07:47;;;;;;;;;;;7.10;99.90;;;;;;5131678;27;19931;-95
2023/01/26 13:10:13;;;;;;;;;;;7.10;99.90;;;;;;5126324;27;19924;-94
2023/01/26 13:12:47;;;;;;;;;;;7.10;99.90;;;;;;5134832;27;19942;-94
2023/01/26 13:15:14;;;;;;;;;;;7.20;99.90;;;;;;5138607;27;19923;-94
2023/01/26 13:17:41;;;;;;;;;;;7.10;99.90;;;;;;5125225;27;20326;-93
2023/01/26 13:20:22;;;;;;;;;;;7.10;99.90;;;;;;5125481;27;20031;-93
2023/01/26 13:22:48;;;;;;;;;;;7.10;99.90;;;;;;5125036;27;20062;-94
2023/01/26 13:25:18;;;;;;;;;;;7.10;99.90;;;;;;5136329;27;19950;-93
2023/01/26 13:27:44;;;;;;;;;;;7.20;99.90;;;;;;5147694;27;19919;-93
2023/01/26 13:30:25;;;;;;;;;;;7.10;99.90;;;;;;5144502;27;19934;-94
2023/01/26 13:33:07;;;;;;;;;;;7.20;99.90;;;;;;5153486;27;19983;-94
2023/01/26 13:35:34;;;;;;;;;;;7.00;99.90;;;;;;5117778;28;19984;-95
2023/01/26 13:37:59;;;;;;;;;;;7.10;99.90;;;;;;5113734;28;20017;-93
2023/01/26 13:40:29;;;;;;;;;;;7.10;99.90;;;;;;5139571;27;19927;-93
2023/01/26 13:43:18;;;;;;;;;;;7.10;99.90;;;;;;5131568;27;19931;-94
2023/01/26 13:45:50;;;;;;;;;;;7.00;99.90;;;;;;5119725;28;19975;-94
2023/01/26 13:48:19;;;;;;;;;;;7.00;99.90;;;;;;5122741;28;19954;-93
2023/01/26 13:50:47;;;;;;;;;;;7.10;99.90;;;;;;5122209;28;19945;-94
2023/01/26 13:53:42;;;;;;;;;;;7.00;99.90;;;;;;5133443;28;19923;-95
2023/01/26 13:56:23;;;;;;;;;;;7.00;99.90;;;;;;5105701;28;20430;-94
2023/01/26 13:58:48;;;;;;;;;;;5.80;99.90;;;;;;5132747;28;19924;-93
2023/01/26 14:01:15;;;;;;;;;;;6.90;99.90;;;;;;5111097;28;19979;-94
2023/01/26 14:03:41;;;;;;;;;;;7.00;99.90;;;;;;5119231;27;19993;-93
2023/01/26 14:06:15;;;;;;;;;;;6.90;99.90;;;;;;5130885;28;19927;-95
2023/01/26 14:08:53;;;;;;;;;;;6.90;99.90;;;;;;5115261;28;20022;-94
2023/01/26 14:11:19;;;;;;;;;;;6.80;99.90;;;;;;5125271;28;19931;-93
2023/01/26 14:13:54;;;;;;;;;;;6.80;99.90;;;;;;5119734;27;19991;-94
2023/01/26 14:16:22;;;;;;;;;;;6.80;99.90;;;;;;5132750;27;19923;-93
2023/01/26 14:18:48;;;;;;;;;;;6.80;99.90;;;;;;5125408;27;19991;-94
2023/01/26 14:21:18;;;;;;;;;;;6.80;99.90;;;;;;5117642;28;19924;-93
2023/01/26 14:23:44;;;;;;;;;;;6.70;99.90;;;;;;5133088;28;20006;-93
2023/01/26 14:26:18;;;;;;;;;;;6.90;99.90;;;;;;5119724;28;19924;-92
2023/01/26 14:28:44;;;;;;;;;;;6.70;99.90;;;;;;5140772;27;19946;-94
2023/01/26 14:31:13;;;;;;;;;;;6.80;99.90;;;;;;5120169;28;19938;-93
2023/01/26 14:33:39;;;;;;;;;;;6.80;99.90;;;;;;5123807;28;19931;-94
2023/01/26 14:36:05;;;;;;;;;;;6.70;99.90;;;;;;5104605;27;19935;-91
2023/01/26 14:38:39;;;;;;;;;;;6.80;99.90;;;;;;5136222;27;19923;-93
2023/01/26 14:41:16;;;;;;;;;;;6.80;99.90;;;;;;5135824;27;20090;-94
2023/01/26 14:43:42;;;;;;;;;;;6.70;99.90;;;;;;5116045;27;19948;-93
2023/01/26 14:46:11;;;;;;;;;;;6.70;99.90;;;;;;5107269;27;19927;-95
2023/01/26 14:48:39;;;;;;;;;;;6.70;99.90;;;;;;5132805;27;19974;-94
2023/01/26 14:51:06;;;;;;;;;;;6.70;99.90;;;;;;5119973;27;19931;-94
2023/01/26 14:53:32;;;;;;;;;;;6.60;99.90;;;;;;5140269;27;19924;-93
2023/01/26 14:55:58;;;;;;;;;;;6.60;99.90;;;;;;5148394;27;19930;-94
2023/01/26 14:58:29;;;;;;;;;;;6.70;99.90;;;;;;5156834;27;19974;-94
2023/01/26 15:00:56;;;;;;;;;;;6.70;99.90;;;;;;5146340;27;19918;-93
2023/01/26 15:03:24;;;;;;;;;;;6.60;99.90;;;;;;5150292;27;19930;-93
2023/01/26 15:06:02;;;;;;;;;;;6.60;99.90;;;;;;5122852;27;19923;-93
2023/01/26 15:08:29;;;;;;;;;;;6.60;99.90;;;;;;5131271;27;19923;-95
2023/01/26 15:12:14;;;;;;;;;;;6.60;99.90;;;;;;5133316;27;19986;-93
2023/01/26 15:13:42;;;;;;;;;;;6.60;99.90;;;;;;5138718;27;19924;-94
2023/01/26 15:16:16;;;;;;;;;;;6.60;99.90;;;;;;5141450;27;19938;-92
2023/01/26 15:18:42;;;;;;;;;;;6.60;99.90;;;;;;5137703;27;19946;-94
2023/01/26 15:21:17;;;;;;;;;;;6.60;99.90;;;;;;5118606;27;20292;-92
2023/01/26 15:23:44;;;;;;;;;;;6.50;99.90;;;;;;5122590;27;20521;-92
2023/01/26 15:26:21;;;;;;;;;;;6.50;99.90;;;;;;5121096;27;19923;-93
2023/01/26 15:28:54;;;;;;;;;;;6.50;99.90;;;;;;5138161;27;19924;-93
2023/01/26 15:31:29;;;;;;;;;;;6.50;99.90;;;;;;5135489;27;19962;-94
2023/01/26 15:33:54;;;;;;;;;;;6.40;99.90;;;;;;5124200;27;19923;-95